sensor_id;sensor_type;location;lat;lon;timestamp;temperature;humidity
3308;DHT22;1666;48.898;9.182;2023-09-30T00:01:28;16.50;11.00
3308;DHT22;1666;48.898;9.182;2023-09-30T00:03:58;16.50;14.40
3308;DHT22;1666;48.898;9.182;2023-09-30T00:06:33;16.50;13.10
3308;DHT22;1666;48.898;9.182;2023-09-30T00:09:03;16.50;13.70
3308;DHT22;1666;48.898;9.182;2023-09-30T00:11:34;16.40;12.50
3308;DHT22;1666;48.898;9.182;2023-09-30T00:14:05;16.40;13.90
3308;DHT22;1666;48.898;9.182;2023-09-30T00:16:35;16.30;14.00
3308;DHT22;1666;48.898;9.182;2023-09-30T00:19:05;16.30;16.10
3308;DHT22;1666;48.898;9.182;2023-09-30T00:21:38;16.20;16.30
3308;DHT22;1666;48.898;9.182;2023-09-30T00:24:08;16.20;18.10
3308;DHT22;1666;48.898;9.182;2023-09-30T00:26:39;16.10;19.00
3308;DHT22;1666;48.898;9.182;2023-09-30T00:29:09;16.00;16.80
3308;DHT22;1666;48.898;9.182;2023-09-30T00:31:39;16.00;14.40
3308;DHT22;1666;48.898;9.182;2023-09-30T00:34:09;16.00;13.40
3308;DHT22;1666;48.898;9.182;2023-09-30T00:36:41;16.00;14.10
3308;DHT22;1666;48.898;9.182;2023-09-30T00:39:11;15.90;12.70
3308;DHT22;1666;48.898;9.182;2023-09-30T00:41:41;15.90;12.90
3308;DHT22;1666;48.898;9.182;2023-09-30T00:44:11;15.90;13.90
3308;DHT22;1666;48.898;9.182;2023-09-30T00:46:41;15.90;12.60
3308;DHT22;1666;48.898;9.182;2023-09-30T00:49:14;15.80;15.50
3308;DHT22;1666;48.898;9.182;2023-09-30T00:51:48;15.80;13.60
3308;DHT22;1666;48.898;9.182;2023-09-30T00:54:19;15.80;15.30
3308;DHT22;1666;48.898;9.182;2023-09-30T00:56:51;15.80;15.70
3308;DHT22;1666;48.898;9.182;2023-09-30T00:59:23;15.80;15.40
3308;DHT22;1666;48.898;9.182;2023-09-30T01:01:54;15.80;15.40
3308;DHT22;1666;48.898;9.182;2023-09-30T01:04:27;15.80;15.60
3308;DHT22;1666;48.898;9.182;2023-09-30T01:07:00;15.80;17.20
3308;DHT22;1666;48.898;9.182;2023-09-30T01:09:31;15.80;17.90
3308;DHT22;1666;48.898;9.182;2023-09-30T01:12:01;15.70;17.30
3308;DHT22;1666;48.898;9.182;2023-09-30T01:14:33;15.70;20.20
3308;DHT22;1666;48.898;9.182;2023-09-30T01:17:05;15.70;20.30
3308;DHT22;1666;48.898;9.182;2023-09-30T01:19:40;15.70;20.60
3308;DHT22;1666;48.898;9.182;2023-09-30T01:22:13;15.70;21.20
3308;DHT22;1666;48.898;9.182;2023-09-30T01:24:43;15.70;20.10
3308;DHT22;1666;48.898;9.182;2023-09-30T01:27:14;15.70;20.10
3308;DHT22;1666;48.898;9.182;2023-09-30T01:29:45;15.70;21.40
3308;DHT22;1666;48.898;9.182;2023-09-30T01:32:15;15.70;21.10
3308;DHT22;1666;48.898;9.182;2023-09-30T01:34:45;15.70;23.00
3308;DHT22;1666;48.898;9.182;2023-09-30T01:37:18;15.60;23.80
3308;DHT22;1666;48.898;9.182;2023-09-30T01:39:48;15.50;25.50
3308;DHT22;1666;48.898;9.182;2023-09-30T01:42:21;15.50;29.00
3308;DHT22;1666;48.898;9.182;2023-09-30T01:44:51;15.50;29.40
3308;DHT22;1666;48.898;9.182;2023-09-30T01:47:23;15.50;29.10
3308;DHT22;1666;48.898;9.182;2023-09-30T01:49:53;15.60;28.30
3308;DHT22;1666;48.898;9.182;2023-09-30T01:52:26;15.60;24.70
3308;DHT22;1666;48.898;9.182;2023-09-30T01:54:57;15.60;25.20
3308;DHT22;1666;48.898;9.182;2023-09-30T01:57:27;15.60;26.10
3308;DHT22;1666;48.898;9.182;2023-09-30T01:59:57;15.60;25.80
3308;DHT22;1666;48.898;9.182;2023-09-30T02:02:27;15.60;26.30
3308;DHT22;1666;48.898;9.182;2023-09-30T02:04:57;15.40;26.50
3308;DHT22;1666;48.898;9.182;2023-09-30T02:07:30;15.40;30.00
3308;DHT22;1666;48.898;9.182;2023-09-30T02:10:00;15.30;33.70
3308;DHT22;1666;48.898;9.182;2023-09-30T02:12:31;15.20;37.90
3308;DHT22;1666;48.898;9.182;2023-09-30T02:15:03;15.20;42.00
3308;DHT22;1666;48.898;9.182;2023-09-30T02:17:34;15.10;43.90
3308;DHT22;1666;48.898;9.182;2023-09-30T02:20:06;15.10;47.30
3308;DHT22;1666;48.898;9.182;2023-09-30T02:22:43;15.00;51.50
3308;DHT22;1666;48.898;9.182;2023-09-30T02:25:15;15.00;54.40
3308;DHT22;1666;48.898;9.182;2023-09-30T02:27:45;14.90;58.90
3308;DHT22;1666;48.898;9.182;2023-09-30T02:30:15;14.90;60.90
3308;DHT22;1666;48.898;9.182;2023-09-30T02:32:45;14.90;61.00
3308;DHT22;1666;48.898;9.182;2023-09-30T02:35:16;14.90;60.40
3308;DHT22;1666;48.898;9.182;2023-09-30T02:37:50;14.90;62.50
3308;DHT22;1666;48.898;9.182;2023-09-30T02:40:21;14.90;62.60
3308;DHT22;1666;48.898;9.182;2023-09-30T02:42:51;14.90;63.60
3308;DHT22;1666;48.898;9.182;2023-09-30T02:45:21;14.90;65.70
3308;DHT22;1666;48.898;9.182;2023-09-30T02:47:52;14.80;66.30
3308;DHT22;1666;48.898;9.182;2023-09-30T02:50:22;14.80;69.10
3308;DHT22;1666;48.898;9.182;2023-09-30T02:52:56;14.80;72.40
3308;DHT22;1666;48.898;9.182;2023-09-30T02:55:26;14.80;70.20
3308;DHT22;1666;48.898;9.182;2023-09-30T02:57:56;14.80;70.00
3308;DHT22;1666;48.898;9.182;2023-09-30T03:00:28;14.80;69.00
3308;DHT22;1666;48.898;9.182;2023-09-30T03:03:01;14.70;69.40
3308;DHT22;1666;48.898;9.182;2023-09-30T03:05:31;14.70;70.10
3308;DHT22;1666;48.898;9.182;2023-09-30T03:08:04;14.70;72.80
3308;DHT22;1666;48.898;9.182;2023-09-30T03:10:34;14.70;72.40
3308;DHT22;1666;48.898;9.182;2023-09-30T03:13:07;14.70;71.40
3308;DHT22;1666;48.898;9.182;2023-09-30T03:15:37;14.70;70.90
3308;DHT22;1666;48.898;9.182;2023-09-30T03:18:07;14.70;68.60
3308;DHT22;1666;48.898;9.182;2023-09-30T03:20:39;14.70;68.90
3308;DHT22;1666;48.898;9.182;2023-09-30T03:23:12;14.70;69.00
3308;DHT22;1666;48.898;9.182;2023-09-30T03:25:43;14.70;67.40
3308;DHT22;1666;48.898;9.182;2023-09-30T03:28:13;14.70;68.20
3308;DHT22;1666;48.898;9.182;2023-09-30T03:30:43;14.70;68.10
3308;DHT22;1666;48.898;9.182;2023-09-30T03:33:13;14.70;67.00
3308;DHT22;1666;48.898;9.182;2023-09-30T03:35:44;14.70;70.50
3308;DHT22;1666;48.898;9.182;2023-09-30T03:38:16;14.70;71.10
3308;DHT22;1666;48.898;9.182;2023-09-30T03:40:47;14.70;70.00
3308;DHT22;1666;48.898;9.182;2023-09-30T03:43:17;14.70;70.40
3308;DHT22;1666;48.898;9.182;2023-09-30T03:45:48;14.70;70.40
3308;DHT22;1666;48.898;9.182;2023-09-30T03:48:17;14.70;68.30
3308;DHT22;1666;48.898;9.182;2023-09-30T03:50:48;14.70;70.30
3308;DHT22;1666;48.898;9.182;2023-09-30T03:53:22;14.70;71.90
3308;DHT22;1666;48.898;9.182;2023-09-30T03:55:53;14.80;71.30
3308;DHT22;1666;48.898;9.182;2023-09-30T03:58:23;14.80;71.80
3308;DHT22;1666;48.898;9.182;2023-09-30T04:00:54;14.80;66.10
3308;DHT22;1666;48.898;9.182;2023-09-30T04:03:24;14.90;66.00
3308;DHT22;1666;48.898;9.182;2023-09-30T04:05:54;14.90;66.40
3308;DHT22;1666;48.898;9.182;2023-09-30T04:08:26;15.00;59.60
3308;DHT22;1666;48.898;9.182;2023-09-30T04:10:56;15.00;55.60
3308;DHT22;1666;48.898;9.182;2023-09-30T04:13:27;15.10;52.90
3308;DHT22;1666;48.898;9.182;2023-09-30T04:15:58;15.00;53.50
3308;DHT22;1666;48.898;9.182;2023-09-30T04:18:28;15.10;54.50
3308;DHT22;1666;48.898;9.182;2023-09-30T04:20:58;15.00;56.10
3308;DHT22;1666;48.898;9.182;2023-09-30T04:23:31;15.00;57.10
3308;DHT22;1666;48.898;9.182;2023-09-30T04:26:03;15.10;57.80
3308;DHT22;1666;48.898;9.182;2023-09-30T04:28:33;15.10;55.10
3308;DHT22;1666;48.898;9.182;2023-09-30T04:31:03;15.10;51.40
3308;DHT22;1666;48.898;9.182;2023-09-30T04:33:35;15.10;53.30
3308;DHT22;1666;48.898;9.182;2023-09-30T04:36:05;15.10;53.50
3308;DHT22;1666;48.898;9.182;2023-09-30T04:38:38;15.10;49.40
3308;DHT22;1666;48.898;9.182;2023-09-30T04:41:08;15.10;52.20
3308;DHT22;1666;48.898;9.182;2023-09-30T04:43:38;15.10;54.30
3308;DHT22;1666;48.898;9.182;2023-09-30T04:46:10;15.10;55.50
3308;DHT22;1666;48.898;9.182;2023-09-30T04:48:42;15.00;57.00
3308;DHT22;1666;48.898;9.182;2023-09-30T04:51:15;15.10;56.80
3308;DHT22;1666;48.898;9.182;2023-09-30T04:53:48;15.10;55.70
3308;DHT22;1666;48.898;9.182;2023-09-30T04:56:18;15.10;54.00
3308;DHT22;1666;48.898;9.182;2023-09-30T04:58:48;15.10;56.40
3308;DHT22;1666;48.898;9.182;2023-09-30T05:01:18;15.00;56.50
3308;DHT22;1666;48.898;9.182;2023-09-30T05:03:48;15.00;56.30
3308;DHT22;1666;48.898;9.182;2023-09-30T05:06:18;15.10;56.60
3308;DHT22;1666;48.898;9.182;2023-09-30T05:08:51;15.00;56.80
3308;DHT22;1666;48.898;9.182;2023-09-30T05:11:22;15.00;59.30
3308;DHT22;1666;48.898;9.182;2023-09-30T05:13:52;15.00;62.80
3308;DHT22;1666;48.898;9.182;2023-09-30T05:16:22;15.00;64.10
3308;DHT22;1666;48.898;9.182;2023-09-30T05:18:53;14.90;65.00
3308;DHT22;1666;48.898;9.182;2023-09-30T05:21:23;14.90;69.40
3308;DHT22;1666;48.898;9.182;2023-09-30T05:23:56;14.90;72.90
3308;DHT22;1666;48.898;9.182;2023-09-30T05:26:26;14.90;72.50
3308;DHT22;1666;48.898;9.182;2023-09-30T05:28:56;14.90;73.20
3308;DHT22;1666;48.898;9.182;2023-09-30T05:31:26;14.80;70.90
3308;DHT22;1666;48.898;9.182;2023-09-30T05:33:57;14.80;76.00
3308;DHT22;1666;48.898;9.182;2023-09-30T05:36:28;14.80;75.50
3308;DHT22;1666;48.898;9.182;2023-09-30T05:39:00;14.80;77.50
3308;DHT22;1666;48.898;9.182;2023-09-30T05:41:31;14.80;77.80
3308;DHT22;1666;48.898;9.182;2023-09-30T05:44:01;14.70;76.00
3308;DHT22;1666;48.898;9.182;2023-09-30T05:46:31;14.70;79.40
3308;DHT22;1666;48.898;9.182;2023-09-30T05:49:01;14.70;85.60
3308;DHT22;1666;48.898;9.182;2023-09-30T05:51:37;14.70;88.00
3308;DHT22;1666;48.898;9.182;2023-09-30T05:54:10;14.80;85.40
3308;DHT22;1666;48.898;9.182;2023-09-30T05:56:40;14.90;83.30
3308;DHT22;1666;48.898;9.182;2023-09-30T05:59:11;14.90;79.10
3308;DHT22;1666;48.898;9.182;2023-09-30T06:01:42;15.00;72.40
3308;DHT22;1666;48.898;9.182;2023-09-30T06:04:13;15.10;70.00
3308;DHT22;1666;48.898;9.182;2023-09-30T06:06:43;15.10;64.90
3308;DHT22;1666;48.898;9.182;2023-09-30T06:09:15;15.10;58.20
3308;DHT22;1666;48.898;9.182;2023-09-30T06:11:45;15.20;58.90
3308;DHT22;1666;48.898;9.182;2023-09-30T06:14:15;15.10;50.90
3308;DHT22;1666;48.898;9.182;2023-09-30T06:16:45;15.10;49.40
3308;DHT22;1666;48.898;9.182;2023-09-30T06:19:17;15.20;49.60
3308;DHT22;1666;48.898;9.182;2023-09-30T06:21:48;15.30;48.70
3308;DHT22;1666;48.898;9.182;2023-09-30T06:24:20;15.30;40.10
3308;DHT22;1666;48.898;9.182;2023-09-30T06:26:50;15.50;41.50
3308;DHT22;1666;48.898;9.182;2023-09-30T06:29:20;15.50;27.90
3308;DHT22;1666;48.898;9.182;2023-09-30T06:31:50;15.40;31.50
3308;DHT22;1666;48.898;9.182;2023-09-30T06:34:20;15.40;35.20
3308;DHT22;1666;48.898;9.182;2023-09-30T06:36:50;15.40;38.00
3308;DHT22;1666;48.898;9.182;2023-09-30T06:39:23;15.40;35.00
3308;DHT22;1666;48.898;9.182;2023-09-30T06:41:53;15.50;29.70
3308;DHT22;1666;48.898;9.182;2023-09-30T06:44:23;15.60;24.80
3308;DHT22;1666;48.898;9.182;2023-09-30T06:46:55;15.60;21.30
3308;DHT22;1666;48.898;9.182;2023-09-30T06:49:25;15.80;22.70
3308;DHT22;1666;48.898;9.182;2023-09-30T06:51:55;16.00;14.00
3308;DHT22;1666;48.898;9.182;2023-09-30T06:54:27;15.70;12.30
3308;DHT22;1666;48.898;9.182;2023-09-30T06:56:57;15.90;12.20
3308;DHT22;1666;48.898;9.182;2023-09-30T06:59:27;15.90;13.70
3308;DHT22;1666;48.898;9.182;2023-09-30T07:01:57;15.90;12.40
3308;DHT22;1666;48.898;9.182;2023-09-30T07:04:29;16.00;9.70
3308;DHT22;1666;48.898;9.182;2023-09-30T07:06:59;16.10;6.60
3308;DHT22;1666;48.898;9.182;2023-09-30T07:09:32;16.20;8.00
3308;DHT22;1666;48.898;9.182;2023-09-30T07:12:02;16.10;1.00
3308;DHT22;1666;48.898;9.182;2023-09-30T07:14:32;16.20;2.30
3308;DHT22;1666;48.898;9.182;2023-09-30T07:17:02;16.40;2.30
3308;DHT22;1666;48.898;9.182;2023-09-30T07:19:32;16.50;1.00
3308;DHT22;1666;48.898;9.182;2023-09-30T07:22:02;16.60;1.00
3308;DHT22;1666;48.898;9.182;2023-09-30T07:24:35;16.50;1.00
3308;DHT22;1666;48.898;9.182;2023-09-30T07:27:06;16.20;1.00
3308;DHT22;1666;48.898;9.182;2023-09-30T07:29:53;16.30;1.00
3308;DHT22;1666;48.898;9.182;2023-09-30T07:32:23;16.40;1.00
3308;DHT22;1666;48.898;9.182;2023-09-30T07:34:55;16.30;1.00
3308;DHT22;1666;48.898;9.182;2023-09-30T07:37:25;16.40;1.00
3308;DHT22;1666;48.898;9.182;2023-09-30T07:39:58;16.60;1.00
3308;DHT22;1666;48.898;9.182;2023-09-30T07:42:28;16.70;1.00
3308;DHT22;1666;48.898;9.182;2023-09-30T07:44:58;16.90;1.00
3308;DHT22;1666;48.898;9.182;2023-09-30T07:47:28;16.80;1.00
3308;DHT22;1666;48.898;9.182;2023-09-30T07:49:58;16.70;1.00
3308;DHT22;1666;48.898;9.182;2023-09-30T07:52:29;16.90;1.00
3308;DHT22;1666;48.898;9.182;2023-09-30T07:55:02;16.90;1.00
3308;DHT22;1666;48.898;9.182;2023-09-30T07:57:32;17.10;1.00
3308;DHT22;1666;48.898;9.182;2023-09-30T08:00:03;17.30;1.00
3308;DHT22;1666;48.898;9.182;2023-09-30T08:02:37;17.40;1.00
3308;DHT22;1666;48.898;9.182;2023-09-30T08:05:08;17.50;1.00
3308;DHT22;1666;48.898;9.182;2023-09-30T08:07:39;17.60;1.00
3308;DHT22;1666;48.898;9.182;2023-09-30T08:10:12;17.30;1.00
3308;DHT22;1666;48.898;9.182;2023-09-30T08:12:44;17.40;1.00
3308;DHT22;1666;48.898;9.182;2023-09-30T08:15:16;17.30;1.00
3308;DHT22;1666;48.898;9.182;2023-09-30T08:17:46;17.50;1.00
3308;DHT22;1666;48.898;9.182;2023-09-30T08:20:16;17.40;1.00
3308;DHT22;1666;48.898;9.182;2023-09-30T08:22:46;17.30;1.00
3308;DHT22;1666;48.898;9.182;2023-09-30T08:25:18;17.30;1.00
3308;DHT22;1666;48.898;9.182;2023-09-30T08:27:51;17.30;1.00
3308;DHT22;1666;48.898;9.182;2023-09-30T08:30:21;17.00;1.00
3308;DHT22;1666;48.898;9.182;2023-09-30T08:32:51;16.70;1.00
3308;DHT22;1666;48.898;9.182;2023-09-30T08:35:21;17.00;1.00
3308;DHT22;1666;48.898;9.182;2023-09-30T08:37:51;17.10;1.00
3308;DHT22;1666;48.898;9.182;2023-09-30T08:40:24;17.00;1.00
3308;DHT22;1666;48.898;9.182;2023-09-30T08:42:54;17.10;1.00
3308;DHT22;1666;48.898;9.182;2023-09-30T08:45:24;17.40;1.00
3308;DHT22;1666;48.898;9.182;2023-09-30T08:47:58;17.50;1.00
3308;DHT22;1666;48.898;9.182;2023-09-30T08:50:32;17.40;1.00
3308;DHT22;1666;48.898;9.182;2023-09-30T08:53:03;17.50;1.00
3308;DHT22;1666;48.898;9.182;2023-09-30T08:55:37;17.60;1.00
3308;DHT22;1666;48.898;9.182;2023-09-30T08:58:07;17.60;1.00
3308;DHT22;1666;48.898;9.182;2023-09-30T09:00:38;17.80;1.00
3308;DHT22;1666;48.898;9.182;2023-09-30T09:03:08;18.00;1.00
3308;DHT22;1666;48.898;9.182;2023-09-30T09:05:38;18.20;1.00
3308;DHT22;1666;48.898;9.182;2023-09-30T09:08:08;18.50;1.00
3308;DHT22;1666;48.898;9.182;2023-09-30T09:10:53;18.10;1.00
3308;DHT22;1666;48.898;9.182;2023-09-30T09:13:24;18.30;1.00
3308;DHT22;1666;48.898;9.182;2023-09-30T09:16:07;18.30;1.00
3308;DHT22;1666;48.898;9.182;2023-09-30T09:18:38;18.70;1.00
3308;DHT22;1666;48.898;9.182;2023-09-30T09:21:09;18.50;1.00
3308;DHT22;1666;48.898;9.182;2023-09-30T09:23:44;18.80;1.00
3308;DHT22;1666;48.898;9.182;2023-09-30T09:26:27;18.60;1.00
3308;DHT22;1666;48.898;9.182;2023-09-30T09:28:58;18.70;1.00
3308;DHT22;1666;48.898;9.182;2023-09-30T09:31:27;18.70;1.00
3308;DHT22;1666;48.898;9.182;2023-09-30T09:33:59;18.70;1.00
3308;DHT22;1666;48.898;9.182;2023-09-30T09:36:38;18.90;1.00
3308;DHT22;1666;48.898;9.182;2023-09-30T09:39:09;18.30;1.00
3308;DHT22;1666;48.898;9.182;2023-09-30T09:41:52;18.40;1.00
3308;DHT22;1666;48.898;9.182;2023-09-30T09:44:24;18.50;1.00
3308;DHT22;1666;48.898;9.182;2023-09-30T09:46:56;18.60;1.00
3308;DHT22;1666;48.898;9.182;2023-09-30T09:49:27;19.00;1.00
3308;DHT22;1666;48.898;9.182;2023-09-30T09:51:58;19.10;1.00
3308;DHT22;1666;48.898;9.182;2023-09-30T09:54:31;19.50;1.00
3308;DHT22;1666;48.898;9.182;2023-09-30T09:57:05;19.40;1.00
3308;DHT22;1666;48.898;9.182;2023-09-30T09:59:39;19.20;1.00
3308;DHT22;1666;48.898;9.182;2023-09-30T10:02:11;19.20;1.00
3308;DHT22;1666;48.898;9.182;2023-09-30T10:04:42;19.30;1.00
3308;DHT22;1666;48.898;9.182;2023-09-30T10:07:17;19.40;1.00
3308;DHT22;1666;48.898;9.182;2023-09-30T10:09:51;19.70;1.00
3308;DHT22;1666;48.898;9.182;2023-09-30T10:12:25;19.20;1.00
3308;DHT22;1666;48.898;9.182;2023-09-30T10:14:55;19.30;1.00
3308;DHT22;1666;48.898;9.182;2023-09-30T10:20:27;19.10;1.00
3308;DHT22;1666;48.898;9.182;2023-09-30T10:23:19;18.90;1.00
3308;DHT22;1666;48.898;9.182;2023-09-30T10:25:53;18.80;1.00
3308;DHT22;1666;48.898;9.182;2023-09-30T10:28:41;18.90;1.00
3308;DHT22;1666;48.898;9.182;2023-09-30T10:31:15;18.50;1.00
3308;DHT22;1666;48.898;9.182;2023-09-30T10:34:17;18.60;1.00
3308;DHT22;1666;48.898;9.182;2023-09-30T10:36:48;18.60;1.00
3308;DHT22;1666;48.898;9.182;2023-09-30T10:42:45;19.50;1.00
3308;DHT22;1666;48.898;9.182;2023-09-30T10:45:44;19.80;1.00
3308;DHT22;1666;48.898;9.182;2023-09-30T10:48:34;20.00;1.00
3308;DHT22;1666;48.898;9.182;2023-09-30T10:51:12;20.30;1.00
3308;DHT22;1666;48.898;9.182;2023-09-30T10:53:47;20.50;1.00
3308;DHT22;1666;48.898;9.182;2023-09-30T10:56:19;20.60;1.00
3308;DHT22;1666;48.898;9.182;2023-09-30T10:58:50;20.00;1.00
3308;DHT22;1666;48.898;9.182;2023-09-30T11:01:23;20.00;1.00
3308;DHT22;1666;48.898;9.182;2023-09-30T11:03:59;19.90;1.00
3308;DHT22;1666;48.898;9.182;2023-09-30T11:06:31;20.30;1.00
3308;DHT22;1666;48.898;9.182;2023-09-30T11:09:02;20.30;1.00
3308;DHT22;1666;48.898;9.182;2023-09-30T11:11:36;20.20;1.00
3308;DHT22;1666;48.898;9.182;2023-09-30T11:14:19;20.00;1.00
3308;DHT22;1666;48.898;9.182;2023-09-30T11:16:57;20.50;1.00
3308;DHT22;1666;48.898;9.182;2023-09-30T11:19:35;20.60;1.00
3308;DHT22;1666;48.898;9.182;2023-09-30T11:22:06;20.60;1.00
3308;DHT22;1666;48.898;9.182;2023-09-30T11:24:37;20.60;1.00
3308;DHT22;1666;48.898;9.182;2023-09-30T11:27:07;20.60;1.00
3308;DHT22;1666;48.898;9.182;2023-09-30T11:29:37;20.70;1.00
3308;DHT22;1666;48.898;9.182;2023-09-30T11:32:09;20.50;1.00
3308;DHT22;1666;48.898;9.182;2023-09-30T11:34:54;20.60;1.00
3308;DHT22;1666;48.898;9.182;2023-09-30T11:37:30;20.40;1.00
3308;DHT22;1666;48.898;9.182;2023-09-30T11:40:14;20.30;1.00
3308;DHT22;1666;48.898;9.182;2023-09-30T11:43:07;20.90;1.00
3308;DHT22;1666;48.898;9.182;2023-09-30T11:45:38;20.50;1.00
3308;DHT22;1666;48.898;9.182;2023-09-30T11:48:19;20.00;1.00
3308;DHT22;1666;48.898;9.182;2023-09-30T11:50:49;20.30;1.00
3308;DHT22;1666;48.898;9.182;2023-09-30T11:53:20;20.20;1.00
3308;DHT22;1666;48.898;9.182;2023-09-30T11:55:50;20.20;1.00
3308;DHT22;1666;48.898;9.182;2023-09-30T11:58:22;20.30;1.00
3308;DHT22;1666;48.898;9.182;2023-09-30T12:00:53;20.10;1.00
3308;DHT22;1666;48.898;9.182;2023-09-30T12:03:27;20.60;1.00
3308;DHT22;1666;48.898;9.182;2023-09-30T12:05:58;20.90;1.00
3308;DHT22;1666;48.898;9.182;2023-09-30T12:08:28;20.70;1.00
3308;DHT22;1666;48.898;9.182;2023-09-30T12:10:59;20.80;1.00
3308;DHT22;1666;48.898;9.182;2023-09-30T12:13:29;21.10;1.00
3308;DHT22;1666;48.898;9.182;2023-09-30T12:15:59;21.00;1.00
3308;DHT22;1666;48.898;9.182;2023-09-30T12:18:33;21.00;1.00
3308;DHT22;1666;48.898;9.182;2023-09-30T12:21:03;21.20;1.00
3308;DHT22;1666;48.898;9.182;2023-09-30T12:23:35;20.70;1.00
3308;DHT22;1666;48.898;9.182;2023-09-30T12:26:05;21.20;1.00
3308;DHT22;1666;48.898;9.182;2023-09-30T12:28:41;21.30;1.00
3308;DHT22;1666;48.898;9.182;2023-09-30T12:31:12;21.00;1.00
3308;DHT22;1666;48.898;9.182;2023-09-30T12:33:45;21.20;1.00
3308;DHT22;1666;48.898;9.182;2023-09-30T12:36:18;20.90;1.00
3308;DHT22;1666;48.898;9.182;2023-09-30T12:38:48;20.90;1.00
3308;DHT22;1666;48.898;9.182;2023-09-30T12:41:18;20.80;1.00
3308;DHT22;1666;48.898;9.182;2023-09-30T12:43:48;21.00;1.00
3308;DHT22;1666;48.898;9.182;2023-09-30T12:46:18;20.80;1.00
3308;DHT22;1666;48.898;9.182;2023-09-30T12:48:51;20.70;1.00
3308;DHT22;1666;48.898;9.182;2023-09-30T12:51:22;21.00;1.00
3308;DHT22;1666;48.898;9.182;2023-09-30T12:53:52;20.70;1.00
3308;DHT22;1666;48.898;9.182;2023-09-30T12:56:22;20.80;1.00
3308;DHT22;1666;48.898;9.182;2023-09-30T12:58:52;20.50;1.00
3308;DHT22;1666;48.898;9.182;2023-09-30T13:01:22;20.50;1.00
3308;DHT22;1666;48.898;9.182;2023-09-30T13:03:55;20.40;1.00
3308;DHT22;1666;48.898;9.182;2023-09-30T13:06:26;20.40;1.00
3308;DHT22;1666;48.898;9.182;2023-09-30T13:08:56;20.30;1.00
3308;DHT22;1666;48.898;9.182;2023-09-30T13:11:26;20.40;1.00
3308;DHT22;1666;48.898;9.182;2023-09-30T13:13:56;20.60;1.00
3308;DHT22;1666;48.898;9.182;2023-09-30T13:16:26;20.60;1.00
3308;DHT22;1666;48.898;9.182;2023-09-30T13:18:59;20.80;1.00
3308;DHT22;1666;48.898;9.182;2023-09-30T13:21:29;20.60;1.00
3308;DHT22;1666;48.898;9.182;2023-09-30T13:23:59;20.50;1.00
3308;DHT22;1666;48.898;9.182;2023-09-30T13:26:29;20.60;1.00
3308;DHT22;1666;48.898;9.182;2023-09-30T13:29:00;20.60;1.00
3308;DHT22;1666;48.898;9.182;2023-09-30T13:31:32;20.60;1.00
3308;DHT22;1666;48.898;9.182;2023-09-30T13:34:06;20.50;1.00
3308;DHT22;1666;48.898;9.182;2023-09-30T13:36:37;20.50;1.00
3308;DHT22;1666;48.898;9.182;2023-09-30T13:39:06;20.60;1.00
3308;DHT22;1666;48.898;9.182;2023-09-30T13:41:40;20.70;1.00
3308;DHT22;1666;48.898;9.182;2023-09-30T13:44:10;20.60;1.00
3308;DHT22;1666;48.898;9.182;2023-09-30T13:46:40;20.40;1.00
3308;DHT22;1666;48.898;9.182;2023-09-30T13:49:13;20.30;1.00
3308;DHT22;1666;48.898;9.182;2023-09-30T13:51:42;20.30;1.00
3308;DHT22;1666;48.898;9.182;2023-09-30T13:54:12;20.30;1.00
3308;DHT22;1666;48.898;9.182;2023-09-30T13:56:42;20.50;1.00
3308;DHT22;1666;48.898;9.182;2023-09-30T13:59:12;20.40;1.00
3308;DHT22;1666;48.898;9.182;2023-09-30T14:01:42;20.20;1.00
3308;DHT22;1666;48.898;9.182;2023-09-30T14:04:15;20.20;1.00
3308;DHT22;1666;48.898;9.182;2023-09-30T14:06:45;20.10;1.00
3308;DHT22;1666;48.898;9.182;2023-09-30T14:09:15;20.10;1.00
3308;DHT22;1666;48.898;9.182;2023-09-30T14:12:01;20.00;1.00
3308;DHT22;1666;48.898;9.182;2023-09-30T14:14:32;20.10;1.00
3308;DHT22;1666;48.898;9.182;2023-09-30T14:17:03;20.20;1.00
3308;DHT22;1666;48.898;9.182;2023-09-30T14:19:40;20.30;1.00
3308;DHT22;1666;48.898;9.182;2023-09-30T14:22:10;20.20;1.00
3308;DHT22;1666;48.898;9.182;2023-09-30T14:24:40;20.30;1.00
3308;DHT22;1666;48.898;9.182;2023-09-30T14:27:10;20.20;1.00
3308;DHT22;1666;48.898;9.182;2023-09-30T14:29:41;20.30;1.00
3308;DHT22;1666;48.898;9.182;2023-09-30T14:32:12;20.20;1.00
3308;DHT22;1666;48.898;9.182;2023-09-30T14:34:45;20.30;1.00
3308;DHT22;1666;48.898;9.182;2023-09-30T14:37:15;20.10;1.00
3308;DHT22;1666;48.898;9.182;2023-09-30T14:39:45;20.20;1.00
3308;DHT22;1666;48.898;9.182;2023-09-30T14:42:15;20.20;1.00
3308;DHT22;1666;48.898;9.182;2023-09-30T14:44:45;20.20;1.00
3308;DHT22;1666;48.898;9.182;2023-09-30T14:47:15;20.20;1.00
3308;DHT22;1666;48.898;9.182;2023-09-30T14:49:47;20.20;1.00
3308;DHT22;1666;48.898;9.182;2023-09-30T14:52:17;20.10;1.00
3308;DHT22;1666;48.898;9.182;2023-09-30T14:54:47;19.90;1.00
3308;DHT22;1666;48.898;9.182;2023-09-30T14:57:17;19.90;1.00
3308;DHT22;1666;48.898;9.182;2023-09-30T14:59:48;20.00;1.00
3308;DHT22;1666;48.898;9.182;2023-09-30T15:02:18;20.10;1.00
3308;DHT22;1666;48.898;9.182;2023-09-30T15:04:50;20.10;1.00
3308;DHT22;1666;48.898;9.182;2023-09-30T15:07:21;20.10;1.00
3308;DHT22;1666;48.898;9.182;2023-09-30T15:09:52;20.00;1.00
3308;DHT22;1666;48.898;9.182;2023-09-30T15:12:22;20.00;1.00
3308;DHT22;1666;48.898;9.182;2023-09-30T15:14:52;20.10;1.00
3308;DHT22;1666;48.898;9.182;2023-09-30T15:17:22;20.00;1.00
3308;DHT22;1666;48.898;9.182;2023-09-30T15:19:55;20.00;1.00
3308;DHT22;1666;48.898;9.182;2023-09-30T15:22:25;19.90;1.00
3308;DHT22;1666;48.898;9.182;2023-09-30T15:24:55;19.90;1.00
3308;DHT22;1666;48.898;9.182;2023-09-30T15:27:25;19.80;1.00
3308;DHT22;1666;48.898;9.182;2023-09-30T15:29:55;19.90;1.00
3308;DHT22;1666;48.898;9.182;2023-09-30T15:32:25;19.90;1.00
3308;DHT22;1666;48.898;9.182;2023-09-30T15:34:59;19.80;1.00
3308;DHT22;1666;48.898;9.182;2023-09-30T15:37:29;19.70;1.00
3308;DHT22;1666;48.898;9.182;2023-09-30T15:39:59;19.80;1.00
3308;DHT22;1666;48.898;9.182;2023-09-30T15:42:29;19.90;1.00
3308;DHT22;1666;48.898;9.182;2023-09-30T15:44:59;19.80;1.00
3308;DHT22;1666;48.898;9.182;2023-09-30T15:47:30;19.70;1.00
3308;DHT22;1666;48.898;9.182;2023-09-30T15:50:03;19.70;1.00
3308;DHT22;1666;48.898;9.182;2023-09-30T15:52:33;19.70;1.00
3308;DHT22;1666;48.898;9.182;2023-09-30T15:55:04;19.60;1.00
3308;DHT22;1666;48.898;9.182;2023-09-30T15:57:34;19.60;1.00
3308;DHT22;1666;48.898;9.182;2023-09-30T16:00:06;19.60;1.00
3308;DHT22;1666;48.898;9.182;2023-09-30T16:02:37;19.60;1.00
3308;DHT22;1666;48.898;9.182;2023-09-30T16:05:10;19.60;1.00
3308;DHT22;1666;48.898;9.182;2023-09-30T16:07:40;19.50;1.00
3308;DHT22;1666;48.898;9.182;2023-09-30T16:10:11;19.40;1.00
3308;DHT22;1666;48.898;9.182;2023-09-30T16:12:42;19.40;1.00
3308;DHT22;1666;48.898;9.182;2023-09-30T16:15:13;19.30;1.00
3308;DHT22;1666;48.898;9.182;2023-09-30T16:17:43;19.10;1.00
3308;DHT22;1666;48.898;9.182;2023-09-30T16:20:15;19.00;1.00
3308;DHT22;1666;48.898;9.182;2023-09-30T16:22:51;19.00;1.00
3308;DHT22;1666;48.898;9.182;2023-09-30T16:25:21;19.00;1.00
3308;DHT22;1666;48.898;9.182;2023-09-30T16:27:51;18.90;1.00
3308;DHT22;1666;48.898;9.182;2023-09-30T16:30:26;18.90;1.00
3308;DHT22;1666;48.898;9.182;2023-09-30T16:32:57;18.80;1.00
3308;DHT22;1666;48.898;9.182;2023-09-30T16:35:29;18.80;1.00
3308;DHT22;1666;48.898;9.182;2023-09-30T16:37:59;18.70;1.00
3308;DHT22;1666;48.898;9.182;2023-09-30T16:40:29;18.60;1.00
3308;DHT22;1666;48.898;9.182;2023-09-30T16:42:59;18.60;1.00
3308;DHT22;1666;48.898;9.182;2023-09-30T16:45:29;18.50;1.00
3308;DHT22;1666;48.898;9.182;2023-09-30T16:47:59;18.50;1.00